Latest Weather Observations for Frederick Reef

IDQ60801

Issued at 3:43 pm EST Thursday 28 January 2021 (issued every 10 minutes, with the page automatically refreshed every 10 minutes)

About weather observations | Map of weather stations | Latest weather observations for QLD | Other Formats
Station Details ID: 200701 Name: FREDERICK REEF Lat: -20.94 Lon: 154.40 Height: 4.9 m
Data from the previous 72 hours. | See also: Recent months at Frederick Reef
Date/Time
EST
Temp
°C
App
Temp
°C
Dew
Point
°C
Rel
Hum
%
Delta-T
°C
Wind Press
QNH
hPa
Press
MSL
hPa
Rain since
9am
mm
Dir  Spd
km/h
Gust
km/h
Spd
kts
Gust
kts
28/03:30pm 27.3 - - - - ESE 28 32 15 17 1004.1 1004.0 -
28/03:00pm 27.0 - - - - ESE 30 35 16 19 1004.3 1004.2 -
28/02:30pm 26.5 - - - - SE 28 37 15 20 1004.4 1004.3 -
28/02:00pm 27.4 - - - - SE 26 30 14 16 1004.6 1004.5 -
28/01:30pm 27.3 - - - - SE 26 28 14 15 1004.9 1004.8 -
28/01:00pm 27.0 - - - - SE 28 30 15 16 1005.3 1005.2 -
28/12:30pm 27.4 - - - - ESE 32 33 17 18 1005.5 1005.4 -
28/12:00pm 27.1 - - - - SE 26 33 14 18 1005.6 1005.5 -
28/11:30am 26.5 - - - - SE 30 33 16 18 1005.8 1005.7 -
28/11:00am 26.7 - - - - ESE 33 37 18 20 1006.0 1005.9 -
28/10:30am 27.1 - - - - ESE 28 32 15 17 1006.2 1006.1 -
28/10:00am 26.9 - - - - SE 32 35 17 19 1006.3 1006.2 -
28/09:30am 26.8 - - - - SE 28 32 15 17 1006.2 1006.1 -
28/09:00am 26.8 - - - - ESE 32 35 17 19 1006.0 1005.9 -
28/08:30am 26.7 - - - - ESE 33 35 18 19 1006.1 1006.0 -
28/08:00am 26.8 - - - - ESE 33 37 18 20 1006.0 1005.9 -
28/07:48am 26.3 - - - - ESE 37 43 20 23 1005.8 1005.7 -
28/07:47am 26.2 - - - - ESE 39 43 21 23 1005.8 - -
28/07:30am 25.9 - - - - SE 30 33 16 18 1005.9 1005.8 -
28/07:00am 26.8 - - - - ESE 33 37 18 20 1005.5 1005.4 -
28/06:30am 26.3 - - - - ESE 35 39 19 21 1005.4 1005.3 -
28/06:00am 26.0 - - - - ESE 39 44 21 24 1005.0 1004.9 -
28/05:30am 26.9 - - - - SE 35 39 19 21 1004.7 1004.6 -
28/05:00am 26.8 - - - - SE 32 39 17 21 1004.4 1004.3 -
28/04:30am 26.0 - - - - SSE 33 39 18 21 1004.1 1004.0 -
28/04:00am 26.2 - - - - SSE 28 33 15 18 1004.1 1004.0 -
28/03:30am 24.9 - - - - SE 37 41 20 22 1004.0 1003.9 -
28/03:00am 25.6 - - - - ESE 33 43 18 23 1004.2 1004.1 -
28/02:30am 26.7 - - - - SE 30 35 16 19 1004.1 1004.0 -
28/02:00am 26.5 - - - - SE 35 41 19 22 1004.4 1004.3 -
28/01:30am 25.8 - - - - SE 37 46 20 25 1004.5 1004.4 -
28/01:00am 26.8 - - - - ESE 35 41 19 22 1004.7 1004.6 -
28/12:30am 26.6 - - - - ESE 35 41 19 22 1005.1 1005.0 -
28/12:00am 26.0 - - - - SE 39 43 21 23 1005.6 1005.5 -
 
Date/Time
EST
Temp
°C
App
Temp
°C
Dew
Point
°C
Rel
Hum
%
Delta-T
°C
Wind Press
QNH
hPa
Press
MSL
hPa
Rain since
9am
mm
Dir  Spd
km/h
Gust
km/h
Spd
kts
Gust
kts
27/11:30pm 26.0 - - - - SE 39 43 21 23 1005.8 1005.7 -
27/11:00pm 26.3 - - - - SE 37 43 20 23 1006.0 1005.9 -
27/10:30pm 26.8 - - - - SE 39 44 21 24 1006.2 1006.1 -
27/10:00pm 26.8 - - - - SE 39 43 21 23 1006.3 1006.2 -
27/09:30pm 26.9 - - - - SE 39 44 21 24 1006.5 1006.4 -
27/09:00pm 26.9 - - - - SE 39 43 21 23 1006.3 1006.2 -
27/08:30pm 26.9 - - - - SE 39 43 21 23 1006.2 1006.1 -
27/08:00pm 26.9 - - - - SE 41 43 22 23 1006.0 1005.9 -
27/07:30pm 26.8 - - - - SSE 41 43 22 23 1005.8 1005.7 -
27/07:00pm 26.9 - - - - SE 39 43 21 23 1005.7 1005.6 -
27/06:30pm 26.9 - - - - SE 37 43 20 23 1005.5 1005.4 -
27/06:00pm 27.1 - - - - SE 33 39 18 21 1005.2 1005.1 -
27/05:30pm 27.3 - - - - SE 35 43 19 23 1004.8 1004.7 -
27/05:00pm 27.1 - - - - SE 35 39 19 21 1004.5 1004.4 -
27/04:30pm 27.2 - - - - SSE 33 37 18 20 1004.3 1004.2 -
27/04:00pm 27.2 - - - - SE 33 35 18 19 1004.2 1004.1 -
27/03:30pm 27.1 - - - - SE 30 33 16 18 1004.1 1004.0 -
27/03:00pm 27.3 - - - - SE 30 32 16 17 1004.4 1004.3 -
27/02:30pm 27.1 - - - - ESE 22 28 12 15 1004.8 1004.7 -
27/02:00pm 27.1 - - - - SE 28 32 15 17 1005.0 1004.9 -
27/01:30pm 27.2 - - - - SE 26 30 14 16 1005.2 1005.1 -
27/01:00pm 25.7 - - - - ENE 19 20 10 11 1005.3 1005.2 -
27/12:30pm 25.2 - - - - ESE 17 22 9 12 1005.5 1005.4 -
27/12:00pm 25.3 - - - - SE 35 39 19 21 1005.6 1005.5 -
27/11:51am 25.8 - - - - SE 28 39 15 21 1005.6 1005.5 -
27/11:30am 26.9 - - - - ESE 2 6 1 3 1005.8 1005.7 -
27/11:00am 27.0 - - - - CALM 0 4 0 2 1005.8 1005.7 -
27/10:30am 27.0 - - - - CALM 0 6 0 3 1005.9 1005.8 -
27/10:00am 27.1 - - - - CALM 0 6 0 3 1005.9 1005.8 -
27/09:30am 27.0 - - - - ESE 17 30 9 16 1006.0 1005.9 -
27/09:07am 27.0 - - - - ESE 7 30 4 16 1006.1 1006.0 -
27/09:00am 27.0 - - - - ESE 2 6 1 3 1006.2 1006.1 -
27/08:30am 27.2 - - - - ESE 2 6 1 3 1006.1 1006.0 -
27/08:00am 27.2 - - - - ESE 2 6 1 3 1006.2 1006.1 -
27/07:30am 27.3 - - - - SE 24 28 13 15 1006.0 1005.9 -
27/07:00am 27.2 - - - - SE 24 28 13 15 1005.9 1005.8 -
27/06:30am 26.9 - - - - ESE 24 26 13 14 1005.7 1005.6 -
27/06:00am 26.7 - - - - SE 4 19 2 10 1005.3 1005.2 -
27/05:30am 26.7 - - - - SSE 17 19 9 10 1004.9 1004.8 -
27/05:00am 26.6 - - - - E 2 6 1 3 1004.4 1004.3 -
27/04:30am 26.6 - - - - ESE 20 26 11 14 1003.8 1003.7 -
27/04:00am 26.4 - - - - ESE 32 35 17 19 1003.8 1003.7 -
27/03:30am 26.2 - - - - SE 20 24 11 13 1003.8 1003.7 -
27/03:00am 26.5 - - - - SE 17 20 9 11 1003.9 1003.8 -
27/02:30am 26.4 - - - - ESE 15 17 8 9 1004.1 1004.0 -
27/02:00am 26.0 - - - - SE 26 33 14 18 1004.2 1004.1 -
27/01:30am 26.5 - - - - SE 24 26 13 14 1004.5 1004.4 -
27/01:00am 26.5 - - - - SSE 24 28 13 15 1004.6 1004.5 -
27/12:30am 26.6 - - - - SSE 24 26 13 14 1005.0 1004.9 -
27/12:00am 26.7 - - - - SE 28 32 15 17 1005.3 1005.2 -
 
Date/Time
EST
Temp
°C
App
Temp
°C
Dew
Point
°C
Rel
Hum
%
Delta-T
°C
Wind Press
QNH
hPa
Press
MSL
hPa
Rain since
9am
mm
Dir  Spd
km/h
Gust
km/h
Spd
kts
Gust
kts
26/11:30pm 26.8 - - - - SE 30 32 16 17 1005.6 1005.5 -
26/11:00pm 26.8 - - - - SE 30 32 16 17 1005.9 1005.8 -
26/10:54pm 26.8 - - - - SE 28 32 15 17 1006.0 - -
26/10:52pm 27.0 - - - - SE 7 32 4 17 1006.0 1005.9 -
26/10:30pm 26.8 - - - - SE 2 6 1 3 1006.2 1006.1 -
26/10:00pm 26.8 - - - - SE 2 6 1 3 1006.3 1006.2 -
26/09:30pm 25.8 - - - - ESE 2 6 1 3 1006.3 1006.2 -
26/09:00pm 24.9 - - - - SSE 2 7 1 4 1006.2 1006.1 -
26/08:30pm 26.5 - - - - SE 2 6 1 3 1005.9 1005.8 -
26/08:13pm 26.5 - - - - SE 7 35 4 19 1005.7 1005.6 -
26/08:00pm 27.0 - - - - CALM 0 7 0 4 1005.5 1005.4 -
26/07:30pm 27.0 - - - - SE 2 6 1 3 1005.4 1005.3 -
26/07:00pm 27.0 - - - - SE 2 6 1 3 1005.1 1005.0 -
26/06:30pm 27.1 - - - - SE 2 6 1 3 1004.9 1004.8 -
26/06:00pm 27.2 - - - - SE 26 30 14 16 1004.8 1004.7 -
26/05:30pm 27.2 - - - - SE 24 28 13 15 1004.5 1004.4 -
26/05:00pm 27.1 - - - - SE 24 26 13 14 1004.3 1004.2 -
26/04:30pm 27.2 - - - - SE 24 26 13 14 1004.1 1004.0 -
26/04:00pm 27.1 - - - - SE 24 28 13 15 1003.9 1003.8 -
26/03:30pm 27.1 - - - - SSE 24 26 13 14 1003.9 1003.8 -
26/03:00pm 27.0 - - - - SSE 24 28 13 15 1003.9 1003.8 -
26/02:30pm 27.1 - - - - SE 26 30 14 16 1004.0 1003.9 -
26/02:00pm 27.0 - - - - SE 22 28 12 15 1004.1 1004.0 -
26/01:30pm 27.2 - - - - SE 2 6 1 3 1004.4 1004.3 -
26/01:00pm 27.2 - - - - SE 2 4 1 2 1004.6 1004.5 -
26/12:30pm 27.0 - - - - CALM 0 4 0 2 1004.8 1004.7 -
26/12:00pm 27.0 - - - - SE 2 6 1 3 1005.1 1005.0 -
26/11:30am 26.9 - - - - SE 2 6 1 3 1005.5 1005.4 -
26/11:00am 26.8 - - - - CALM 0 4 0 2 1005.6 1005.5 -
26/10:30am 26.6 - - - - ESE 2 6 1 3 1006.0 1005.9 -
26/10:00am 26.6 - - - - ESE 13 20 7 11 1006.0 1005.9 -
26/09:30am 26.3 - - - - ESE 19 22 10 12 1006.3 1006.2 -
26/09:00am 26.0 - - - - ESE 19 22 10 12 1006.3 1006.2 -
26/08:30am 25.3 - - - - E 19 20 10 11 1006.6 1006.5 -
26/08:00am 24.9 - - - - E 22 26 12 14 1006.6 1006.5 -
26/07:30am 24.4 - - - - E 35 41 19 22 1006.6 1006.5 -
26/07:00am 25.0 - - - - SE 30 35 16 19 1006.3 1006.2 -
26/06:30am 25.2 - - - - ESE 28 35 15 19 1006.1 1006.0 -
26/06:00am 25.6 - - - - SE 28 35 15 19 1005.6 1005.5 -
26/05:30am 25.7 - - - - SE 26 30 14 16 1005.1 1005.0 -
26/05:00am 25.9 - - - - ESE 28 30 15 16 1004.8 1004.7 -
26/04:30am 26.3 - - - - ESE 26 30 14 16 1004.5 1004.4 -
26/04:00am 26.7 - - - - E 26 30 14 16 1004.4 1004.3 -
26/03:30am 26.8 - - - - E 20 24 11 13 1004.7 1004.6 -
26/03:00am 26.5 - - - - ESE 22 24 12 13 1004.6 1004.5 -
26/02:30am 25.9 - - - - ESE 26 28 14 15 1004.8 1004.7 -
26/02:00am 26.4 - - - - ESE 32 41 17 22 1004.8 1004.7 -
26/01:30am 26.8 - - - - ESE 26 30 14 16 1005.2 1005.1 -
26/01:00am 26.9 - - - - ESE 28 32 15 17 1005.5 1005.4 -
26/12:30am 26.6 - - - - ESE 26 30 14 16 1005.8 1005.7 -
26/12:00am 26.6 - - - - ESE 28 30 15 16 1006.3 1006.2 -
 
Date/Time
EST
Temp
°C
App
Temp
°C
Dew
Point
°C
Rel
Hum
%
Delta-T
°C
Wind Press
QNH
hPa
Press
MSL
hPa
Rain since
9am
mm
Dir  Spd
km/h
Gust
km/h
Spd
kts
Gust
kts
25/11:39pm 26.5 - - - - E 9 35 5 19 1006.3 1006.2 -
25/11:30pm 26.4 - - - - E 2 6 1 3 1006.4 1006.3 -
25/11:00pm 26.5 - - - - E 2 6 1 3 1006.7 1006.6 -
25/10:30pm 26.5 - - - - E 2 6 1 3 1006.9 1006.8 -
25/10:00pm 26.8 - - - - E 2 6 1 3 1007.1 1007.0 -
25/09:30pm 26.7 - - - - ESE 2 6 1 3 1007.0 1006.9 -
25/09:00pm 26.7 - - - - ESE 2 7 1 4 1006.7 1006.6 -
25/08:30pm 26.5 - - - - ESE 2 7 1 4 1006.4 1006.3 -
25/08:00pm 26.6 - - - - E 2 6 1 3 1006.5 1006.4 -
25/07:30pm 26.5 - - - - E 2 6 1 3 1006.2 1006.1 -
25/07:00pm 26.3 - - - - E 2 6 1 3 1006.3 1006.2 -
25/06:30pm 26.5 - - - - ESE 33 37 18 20 1006.0 1005.9 -
25/06:00pm 26.7 - - - - ESE 32 35 17 19 1005.8 1005.7 -
25/05:30pm 26.8 - - - - ESE 33 39 18 21 1005.6 1005.5 -
25/05:00pm 26.6 - - - - SE 30 33 16 18 1005.4 1005.3 -
25/04:30pm 26.5 - - - - SE 33 37 18 20 1005.3 1005.2 -
25/04:17pm 26.4 - - - - SE 9 32 5 17 1005.4 1005.3 -
25/04:00pm 26.5 - - - - SE 2 6 1 3 1005.4 1005.3 -

Other formats

Comma delimited format used in spreadsheet applications
http://www.bom.gov.au/fwo/IDQ60801/IDQ60801.94393.axf

JavaScript Object Notation format (JSON) in row-major order
http://www.bom.gov.au/fwo/IDQ60801/IDQ60801.94393.json

Data quality

Most of these data are generated automatically and are frequently updated. Quality checks on data are not normally performed. It is possible for incorrect values to appear. Refer to information at About Latest Weather Observations and please check the disclaimer before using these data.